KTYR - Tyler, Texas, USA
Distance from station: WNW 10mi, 17km
Updated: Sat, 08-Aug-2020 11:53pm CDT
Clear
Clear
 Wind from SSE
Wind: SSE 7 mph , 11 km/h
Temperature: 82°F , 28°C
Heat Index: 86°F , 30°C
Dew Point: 72°F , 22°C
Humidity: 70%
Barometer: 30.09 inHg , 1019 hPa
Clouds: Clear
Visibility: 10 miles , 16 km
2020/08/09 04:53 KTYR 090453Z AUTO 16006KT 10SM CLR 28/22 A3009 RMK AO2 SLP180 T02830217
KRFI - Henderson Rusk C, Texas, USA
Distance from station: ESE 25mi, 40km
Updated: Sun, 09-Aug-2020 12:35am CDT
Clear
Clear
 Wind from calm
Wind: Calm
Temperature: 77°F , 25°C
Dew Point: 72°F , 22°C
Humidity: 83%
Barometer: 30.12 inHg , 1020 hPa
Clouds: Clear
Visibility: 10 miles , 16 km
2020/08/09 05:35 KRFI 090535Z AUTO 00000KT 10SM CLR 25/22 A3012 RMK AO2 T02520220
 
KJSO - Jacksonville, Texas, USA
Distance from station: S 30mi, 48km
Updated: Sun, 09-Aug-2020 12:55am CDT
Clear
Clear
 Wind from S
Wind: S 7 mph , 11 km/h
Temperature: 79°F , 26°C
Dew Point: 73°F , 23°C
Humidity: 84%
Barometer: 30.12 inHg , 1020 hPa
Clouds: Clear
Visibility: 10 miles , 16 km
2020/08/09 05:55 KJSO 090555Z AUTO 18006KT 10SM CLR 26/23 A3012 RMK AO2 T02580231
KGGG - Longview, Texas, USA
Distance from station: ENE 31mi, 50km
Updated: Sun, 09-Aug-2020 12:53am CDT
Clear
Clear
 Wind from S
Wind: S 8 mph , 13 km/h
Temperature: 79°F , 26°C
Dew Point: 72°F , 22°C
Humidity: 79%
Barometer: 30.09 inHg , 1019 hPa
Clouds: Clear
Visibility: 10 miles , 16 km
2020/08/09 05:53 KGGG 090553Z AUTO 17007KT 10SM CLR 26/22 A3009 RMK AO2 SLP180 T02610217 10333 20261 403560239 50007
 
KJXI - Gilmer Muni, Texas, USA
Distance from station: NNE 33mi, 53km
Updated: Sun, 09-Aug-2020 12:35am CDT
Clear
Clear
 Wind from SSE
Wind: SSE 5 mph , 7 km/h
Temperature: 79°F , 26°C
Dew Point: 72°F , 22°C
Humidity: 79%
Barometer: 30.09 inHg , 1019 hPa
Clouds: Clear
Visibility: 10 miles , 16 km
2020/08/09 05:35 KJXI 090535Z AUTO 16004KT 10SM CLR 26/22 A3009 RMK AO2 T02620215
KJDD - Mineola/Quitman, Texas, USA
Distance from station: NNW 35mi, 56km
Updated: Sun, 09-Aug-2020 12:35am CDT
Clear
Clear
 Wind from SSE
Wind: SSE 5 mph , 7 km/h
Temperature: 81°F , 27°C
Heat Index: 85°F , 29°C
Dew Point: 72°F , 22°C
Humidity: 74%
Barometer: 30.08 inHg , 1018.6 hPa
Clouds: Clear
Visibility: 10 miles , 16 km
2020/08/09 05:35 KJDD 090535Z AUTO 15004KT 10SM CLR 27/22 A3008 RMK AO2
 
KF44 - Athens, Texas, USA
Distance from station: WSW 36mi, 57km
Updated: Sun, 09-Aug-2020 12:35am CDT
Clear
Clear
 Wind from SE
Wind: SE 3 mph , 6 km/h
Temperature: 81°F , 27°C
Heat Index: 85°F , 29°C
Dew Point: 72°F , 22°C
Humidity: 74%
Barometer: 30.07 inHg , 1018.3 hPa
Clouds: Clear
Visibility: 10 miles , 16 km
2020/08/09 05:35 KF44 090535Z AUTO 14003KT 10SM CLR 27/22 A3007 RMK AO2
KPSN - Palestine Muni, Texas, USA
Distance from station: SW 44mi, 71km
Updated: Sat, 08-Aug-2020 12:35am CDT
NOT Current
Clear
Clear
 Wind from SE
Wind: SE 6 mph , 9 km/h
Temperature: 82°F , 28°C
Heat Index: 87°F , 31°C
Dew Point: 73°F , 23°C
Humidity: 74%
Barometer: 30.07 inHg , 1018.3 hPa
Clouds: Clear
Visibility: 10 miles , 16 km
2020/08/08 05:35 KPSN 080535Z AUTO 14005KT 10SM CLR 28/23 A3007 RMK AO2 T02800235
 
KASL - Marshall, Texas, USA
Distance from station: ENE 57mi, 92km
Updated: Sun, 09-Aug-2020 12:35am CDT
Clear
Clear
 Wind from calm
Wind: Calm
Temperature: 75°F , 24°C
Dew Point: 72°F , 22°C
Humidity: 89%
Barometer: 30.12 inHg , 1020 hPa
Clouds: Clear
Visibility: 10 miles , 16 km
2020/08/09 05:35 KASL 090535Z AUTO 00000KT 10SM CLR 24/22 A3012 RMK AO1 T02400222
KOSA - Mount Pleasant, Texas, USA
Distance from station: NNE 58mi, 93km
Updated: Sun, 09-Aug-2020 12:35am CDT
Clear
Clear
 Wind from calm
Wind: Calm
Temperature: 79°F , 26°C
Dew Point: 75°F , 24°C
Humidity: 89%
Barometer: 30.10 inHg , 1019.3 hPa
Clouds: Clear
Visibility: 7 miles , 11 km
2020/08/09 05:35 KOSA 090535Z AUTO 00000KT 7SM CLR 26/24 A3010 RMK AO1 T02550235
 
KOCH - Nacogdoches, Texas, USA
Distance from station: SSE 59mi, 95km
Updated: Sat, 08-Aug-2020 11:56pm CDT
Clear
Clear
 Wind from SE
Wind: SE 5 mph , 7 km/h
Temperature: 77°F , 25°C
Dew Point: 73°F , 23°C
Humidity: 89%
Barometer: 30.12 inHg , 1020 hPa
Clouds: Clear
Visibility: 10 miles , 16 km
2020/08/09 04:56 KOCH 090456Z AUTO 13004KT 10SM CLR 25/23 A3012 RMK AO2 SLP200 T02500228
KSLR - Sulphur Springs, Texas, USA
Distance from station: NNW 64mi, 103km
Updated: Sun, 09-Aug-2020 12:35am CDT
Clear
Clear
 Wind from SSE
Wind: SSE 12 mph , 19 km/h
Temperature: 82°F , 28°C
Heat Index: 86°F , 30°C
Dew Point: 70°F , 21°C
Humidity: 66%
Barometer: 30.09 inHg , 1019 hPa
Clouds: Clear
Visibility: 10 miles , 16 km
2020/08/09 05:35 KSLR 090535Z AUTO 16010KT 10SM CLR 28/21 A3009 RMK AO2 T02830210
 
KTRL - Terrell, Texas, USA
Distance from station: WNW 66mi, 107km
Updated: Sun, 09-Aug-2020 12:53am CDT
Clear
Clear
 Wind from SSE
Wind: SSE 9 mph , 15 km/h
Temperature: 82°F , 28°C
Heat Index: 86°F , 30°C
Dew Point: 70°F , 21°C
Humidity: 66%
Barometer: 30.07 inHg , 1018.3 hPa
Clouds: Clear
Visibility: 10 miles , 16 km
2020/08/09 05:53 KTRL 090553Z AUTO 15008KT 10SM CLR 28/21 A3007 RMK AO2 SLP174 T02780206 10339 20278 403610250 51011
KCRS - Corsicana, Texas, USA
Distance from station: WSW 70mi, 113km
Updated: Sun, 09-Aug-2020 12:53am CDT
Clear
Clear
 Wind from S
Wind: S 9 mph , 15 km/h
Temperature: 82°F , 28°C
Heat Index: 86°F , 30°C
Dew Point: 72°F , 22°C
Humidity: 70%
Barometer: 30.08 inHg , 1018.6 hPa
Clouds: Clear
Visibility: 10 miles , 16 km
2020/08/09 05:53 KCRS 090553Z AUTO 17008KT 10SM CLR 28/22 A3008 RMK AO2 SLP178 T02780217 10350 20278 403610250 51011 $
 
KGVT - Greenville/Major, Texas, USA
Distance from station: NW 72mi, 115km
Updated: Sun, 09-Aug-2020 12:40am CDT
Clear
Clear
 Wind from SE
Wind: SE 7 mph , 11 km/h
Temperature: 81°F , 27°C
Heat Index: 85°F , 29°C
Dew Point: 70°F , 21°C
Humidity: 70%
Barometer: 30.08 inHg , 1018.6 hPa
Clouds: Clear
Visibility: 10 miles , 16 km
2020/08/09 05:40 KGVT 090540Z AUTO 14006KT 10SM CLR 27/21 A3008 RMK AO2

Metar display script from Saratoga-Weather.org